sensor_id;sensor_type;location;lat;lon;timestamp;pressure;altitude;pressure_sealevel;temperature;humidity
20394;BME280;10356;50.544;9.642;2022-11-20T00:02:06;97893.56;;;-1.68;99.38
20394;BME280;10356;50.544;9.642;2022-11-20T00:04:33;97899.53;;;-1.69;98.54
20394;BME280;10356;50.544;9.642;2022-11-20T00:06:59;97901.09;;;-1.65;98.77
20394;BME280;10356;50.544;9.642;2022-11-20T00:09:25;97892.03;;;-1.74;98.61
20394;BME280;10356;50.544;9.642;2022-11-20T00:11:52;97896.84;;;-1.89;99.21
20394;BME280;10356;50.544;9.642;2022-11-20T00:14:19;97889.59;;;-1.77;98.81
20394;BME280;10356;50.544;9.642;2022-11-20T00:16:45;97891.22;;;-1.74;99.08
20394;BME280;10356;50.544;9.642;2022-11-20T00:19:13;97892.56;;;-1.64;98.94
20394;BME280;10356;50.544;9.642;2022-11-20T00:21:39;97887.41;;;-1.62;98.67
20394;BME280;10356;50.544;9.642;2022-11-20T00:24:08;97891.56;;;-1.60;98.37
20394;BME280;10356;50.544;9.642;2022-11-20T00:26:35;97887.97;;;-1.54;98.79
20394;BME280;10356;50.544;9.642;2022-11-20T00:29:02;97893.13;;;-1.56;98.29
20394;BME280;10356;50.544;9.642;2022-11-20T00:31:29;97895.56;;;-1.53;98.20
20394;BME280;10356;50.544;9.642;2022-11-20T00:34:00;97903.16;;;-1.51;98.05
20394;BME280;10356;50.544;9.642;2022-11-20T00:36:31;97898.13;;;-1.53;97.70
20394;BME280;10356;50.544;9.642;2022-11-20T00:38:58;97904.84;;;-1.50;98.19
20394;BME280;10356;50.544;9.642;2022-11-20T00:41:26;97902.34;;;-1.52;98.04
20394;BME280;10356;50.544;9.642;2022-11-20T00:43:53;97894.47;;;-1.46;98.10
20394;BME280;10356;50.544;9.642;2022-11-20T00:46:22;97893.56;;;-1.45;98.08
20394;BME280;10356;50.544;9.642;2022-11-20T00:48:49;97889.84;;;-1.59;98.80
20394;BME280;10356;50.544;9.642;2022-11-20T00:51:17;97876.34;;;-1.63;99.21
20394;BME280;10356;50.544;9.642;2022-11-20T00:53:45;97887.56;;;-1.67;99.83
20394;BME280;10356;50.544;9.642;2022-11-20T00:56:14;97888.97;;;-1.58;99.96
20394;BME280;10356;50.544;9.642;2022-11-20T00:58:42;97886.06;;;-1.73;100.00
20394;BME280;10356;50.544;9.642;2022-11-20T01:01:11;97877.13;;;-1.61;100.00
20394;BME280;10356;50.544;9.642;2022-11-20T01:03:40;97882.56;;;-1.70;100.00
20394;BME280;10356;50.544;9.642;2022-11-20T01:06:10;97883.50;;;-1.73;100.00
20394;BME280;10356;50.544;9.642;2022-11-20T01:08:38;97884.34;;;-1.72;100.00
20394;BME280;10356;50.544;9.642;2022-11-20T01:11:07;97870.16;;;-1.81;100.00
20394;BME280;10356;50.544;9.642;2022-11-20T01:13:35;97873.91;;;-1.66;100.00
20394;BME280;10356;50.544;9.642;2022-11-20T01:16:05;97871.78;;;-1.78;100.00
20394;BME280;10356;50.544;9.642;2022-11-20T01:18:33;97878.47;;;-1.76;100.00
20394;BME280;10356;50.544;9.642;2022-11-20T01:21:01;97872.66;;;-1.79;100.00
20394;BME280;10356;50.544;9.642;2022-11-20T01:23:30;97874.00;;;-1.69;100.00
20394;BME280;10356;50.544;9.642;2022-11-20T01:25:59;97863.34;;;-1.57;100.00
20394;BME280;10356;50.544;9.642;2022-11-20T01:28:28;97869.75;;;-1.45;100.00
20394;BME280;10356;50.544;9.642;2022-11-20T01:30:54;97869.72;;;-1.44;100.00
20394;BME280;10356;50.544;9.642;2022-11-20T01:33:21;97873.53;;;-1.32;100.00
20394;BME280;10356;50.544;9.642;2022-11-20T01:35:47;97872.47;;;-1.27;100.00
20394;BME280;10356;50.544;9.642;2022-11-20T01:38:15;97870.47;;;-1.19;100.00
20394;BME280;10356;50.544;9.642;2022-11-20T01:40:41;97871.25;;;-1.17;100.00
20394;BME280;10356;50.544;9.642;2022-11-20T01:43:13;97871.09;;;-1.12;100.00
20394;BME280;10356;50.544;9.642;2022-11-20T01:46:13;97854.69;;;-1.07;100.00
20394;BME280;10356;50.544;9.642;2022-11-20T01:48:46;97842.56;;;-1.02;100.00
20394;BME280;10356;50.544;9.642;2022-11-20T01:51:21;97840.88;;;-1.03;100.00
20394;BME280;10356;50.544;9.642;2022-11-20T01:53:49;97829.00;;;-1.04;100.00
20394;BME280;10356;50.544;9.642;2022-11-20T01:56:17;97828.25;;;-1.06;100.00
20394;BME280;10356;50.544;9.642;2022-11-20T01:58:48;97832.34;;;-1.02;100.00
20394;BME280;10356;50.544;9.642;2022-11-20T02:01:20;97840.19;;;-1.06;100.00
20394;BME280;10356;50.544;9.642;2022-11-20T02:03:47;97836.56;;;-1.01;100.00
20394;BME280;10356;50.544;9.642;2022-11-20T02:06:18;97836.63;;;-1.02;100.00
20394;BME280;10356;50.544;9.642;2022-11-20T02:08:45;97837.31;;;-0.99;100.00
20394;BME280;10356;50.544;9.642;2022-11-20T02:11:12;97838.06;;;-0.95;100.00
20394;BME280;10356;50.544;9.642;2022-11-20T02:13:39;97841.19;;;-0.89;100.00
20394;BME280;10356;50.544;9.642;2022-11-20T02:16:21;97847.22;;;-0.90;100.00
20394;BME280;10356;50.544;9.642;2022-11-20T02:18:50;97853.16;;;-0.89;100.00
20394;BME280;10356;50.544;9.642;2022-11-20T02:21:34;97859.88;;;-0.87;100.00
20394;BME280;10356;50.544;9.642;2022-11-20T02:24:07;97858.84;;;-0.82;100.00
20394;BME280;10356;50.544;9.642;2022-11-20T02:26:39;97857.22;;;-0.83;100.00
20394;BME280;10356;50.544;9.642;2022-11-20T02:29:07;97848.06;;;-0.89;100.00
20394;BME280;10356;50.544;9.642;2022-11-20T02:31:36;97841.09;;;-0.86;100.00
20394;BME280;10356;50.544;9.642;2022-11-20T02:34:04;97841.19;;;-0.89;100.00
20394;BME280;10356;50.544;9.642;2022-11-20T02:36:32;97838.00;;;-0.94;100.00
20394;BME280;10356;50.544;9.642;2022-11-20T02:38:59;97829.41;;;-0.93;100.00
20394;BME280;10356;50.544;9.642;2022-11-20T02:41:32;97834.50;;;-0.91;100.00
20394;BME280;10356;50.544;9.642;2022-11-20T02:43:59;97824.84;;;-0.85;100.00
20394;BME280;10356;50.544;9.642;2022-11-20T02:46:26;97818.19;;;-0.89;100.00
20394;BME280;10356;50.544;9.642;2022-11-20T02:48:53;97816.28;;;-0.83;100.00
20394;BME280;10356;50.544;9.642;2022-11-20T02:51:19;97815.38;;;-0.82;100.00
20394;BME280;10356;50.544;9.642;2022-11-20T02:53:46;97817.94;;;-0.82;100.00
20394;BME280;10356;50.544;9.642;2022-11-20T02:56:12;97811.88;;;-0.80;100.00
20394;BME280;10356;50.544;9.642;2022-11-20T02:58:40;97804.16;;;-0.78;100.00
20394;BME280;10356;50.544;9.642;2022-11-20T03:01:06;97802.50;;;-0.79;100.00
20394;BME280;10356;50.544;9.642;2022-11-20T03:03:33;97798.41;;;-0.83;100.00
20394;BME280;10356;50.544;9.642;2022-11-20T03:06:00;97805.13;;;-0.81;100.00
20394;BME280;10356;50.544;9.642;2022-11-20T03:08:26;97802.56;;;-0.81;100.00
20394;BME280;10356;50.544;9.642;2022-11-20T03:10:53;97821.16;;;-0.77;100.00
20394;BME280;10356;50.544;9.642;2022-11-20T03:13:20;97823.47;;;-0.71;100.00
20394;BME280;10356;50.544;9.642;2022-11-20T03:15:47;97818.06;;;-0.64;100.00
20394;BME280;10356;50.544;9.642;2022-11-20T03:18:14;97823.06;;;-0.61;100.00
20394;BME280;10356;50.544;9.642;2022-11-20T03:20:40;97821.97;;;-0.55;100.00
20394;BME280;10356;50.544;9.642;2022-11-20T03:23:07;97820.44;;;-0.59;100.00
20394;BME280;10356;50.544;9.642;2022-11-20T03:25:33;97815.19;;;-0.56;100.00
20394;BME280;10356;50.544;9.642;2022-11-20T03:28:00;97810.97;;;-0.57;100.00
20394;BME280;10356;50.544;9.642;2022-11-20T03:30:27;97815.19;;;-0.56;100.00
20394;BME280;10356;50.544;9.642;2022-11-20T03:32:55;97811.75;;;-0.55;100.00
20394;BME280;10356;50.544;9.642;2022-11-20T03:35:21;97810.06;;;-0.56;100.00
20394;BME280;10356;50.544;9.642;2022-11-20T03:37:47;97816.09;;;-0.57;100.00
20394;BME280;10356;50.544;9.642;2022-11-20T03:40:14;97808.53;;;-0.60;100.00
20394;BME280;10356;50.544;9.642;2022-11-20T03:42:41;97810.06;;;-0.56;100.00
20394;BME280;10356;50.544;9.642;2022-11-20T03:45:13;97803.06;;;-0.51;100.00
20394;BME280;10356;50.544;9.642;2022-11-20T03:47:40;97803.91;;;-0.51;100.00
20394;BME280;10356;50.544;9.642;2022-11-20T03:50:09;97799.53;;;-0.49;100.00
20394;BME280;10356;50.544;9.642;2022-11-20T03:52:37;97791.34;;;-0.57;100.00
20394;BME280;10356;50.544;9.642;2022-11-20T03:55:04;97789.34;;;-0.50;100.00
20394;BME280;10356;50.544;9.642;2022-11-20T03:57:31;97794.47;;;-0.50;100.00
20394;BME280;10356;50.544;9.642;2022-11-20T03:59:57;97783.44;;;-0.51;100.00
20394;BME280;10356;50.544;9.642;2022-11-20T04:02:24;97765.56;;;-0.52;100.00
20394;BME280;10356;50.544;9.642;2022-11-20T04:04:50;97760.84;;;-0.61;100.00
20394;BME280;10356;50.544;9.642;2022-11-20T04:07:18;97759.41;;;-0.68;100.00
20394;BME280;10356;50.544;9.642;2022-11-20T04:09:44;97754.28;;;-0.68;100.00
20394;BME280;10356;50.544;9.642;2022-11-20T04:12:11;97751.72;;;-0.68;100.00
20394;BME280;10356;50.544;9.642;2022-11-20T04:14:37;97759.28;;;-0.65;100.00
20394;BME280;10356;50.544;9.642;2022-11-20T04:17:04;97757.00;;;-0.51;100.00
20394;BME280;10356;50.544;9.642;2022-11-20T04:19:30;97757.13;;;-0.54;100.00
20394;BME280;10356;50.544;9.642;2022-11-20T04:21:57;97780.22;;;-0.56;100.00
20394;BME280;10356;50.544;9.642;2022-11-20T04:24:26;97777.72;;;-0.57;100.00
20394;BME280;10356;50.544;9.642;2022-11-20T04:26:52;97775.03;;;-0.54;100.00
20394;BME280;10356;50.544;9.642;2022-11-20T04:29:19;97772.34;;;-0.51;100.00
20394;BME280;10356;50.544;9.642;2022-11-20T04:31:45;97775.09;;;-0.56;100.00
20394;BME280;10356;50.544;9.642;2022-11-20T04:34:12;97779.13;;;-0.50;100.00
20394;BME280;10356;50.544;9.642;2022-11-20T04:36:38;97782.78;;;-0.56;100.00
20394;BME280;10356;50.544;9.642;2022-11-20T04:39:06;97774.84;;;-0.50;100.00
20394;BME280;10356;50.544;9.642;2022-11-20T04:41:35;97762.63;;;-0.43;100.00
20394;BME280;10356;50.544;9.642;2022-11-20T04:44:03;97770.44;;;-0.46;100.00
20394;BME280;10356;50.544;9.642;2022-11-20T04:46:32;97780.28;;;-0.37;100.00
20394;BME280;10356;50.544;9.642;2022-11-20T04:48:58;97782.09;;;-0.39;100.00
20394;BME280;10356;50.544;9.642;2022-11-20T04:51:25;97780.53;;;-0.43;100.00
20394;BME280;10356;50.544;9.642;2022-11-20T04:53:52;97773.50;;;-0.38;100.00
20394;BME280;10356;50.544;9.642;2022-11-20T04:56:18;97780.16;;;-0.34;100.00
20394;BME280;10356;50.544;9.642;2022-11-20T04:58:46;97769.91;;;-0.34;100.00
20394;BME280;10356;50.544;9.642;2022-11-20T05:01:15;97758.28;;;-0.41;100.00
20394;BME280;10356;50.544;9.642;2022-11-20T05:03:43;97763.41;;;-0.41;100.00
20394;BME280;10356;50.544;9.642;2022-11-20T05:06:12;97758.28;;;-0.41;100.00
20394;BME280;10356;50.544;9.642;2022-11-20T05:08:39;97763.41;;;-0.41;100.00
20394;BME280;10356;50.544;9.642;2022-11-20T05:11:07;97758.03;;;-0.35;100.00
20394;BME280;10356;50.544;9.642;2022-11-20T05:13:34;97761.34;;;-0.33;100.00
20394;BME280;10356;50.544;9.642;2022-11-20T05:16:03;97756.09;;;-0.30;100.00
20394;BME280;10356;50.544;9.642;2022-11-20T05:18:30;97744.53;;;-0.39;100.00
20394;BME280;10356;50.544;9.642;2022-11-20T05:20:57;97735.25;;;-0.41;100.00
20394;BME280;10356;50.544;9.642;2022-11-20T05:23:24;97737.50;;;-0.34;100.00
20394;BME280;10356;50.544;9.642;2022-11-20T05:25:52;97733.06;;;-0.30;100.00
20394;BME280;10356;50.544;9.642;2022-11-20T05:28:18;97742.09;;;-0.22;100.00
20394;BME280;10356;50.544;9.642;2022-11-20T05:30:45;97739.25;;;-0.16;100.00
20394;BME280;10356;50.544;9.642;2022-11-20T05:33:13;97727.31;;;-0.15;100.00
20394;BME280;10356;50.544;9.642;2022-11-20T05:35:39;97722.28;;;-0.18;100.00
20394;BME280;10356;50.544;9.642;2022-11-20T05:38:06;97720.50;;;-0.16;100.00
20394;BME280;10356;50.544;9.642;2022-11-20T05:40:32;97727.16;;;-0.12;100.00
20394;BME280;10356;50.544;9.642;2022-11-20T05:42:59;97718.97;;;-0.20;100.00
20394;BME280;10356;50.544;9.642;2022-11-20T05:45:26;97722.56;;;-0.24;100.00
20394;BME280;10356;50.544;9.642;2022-11-20T05:47:53;97722.94;;;-0.13;100.00
20394;BME280;10356;50.544;9.642;2022-11-20T05:50:20;97726.38;;;-0.14;100.00
20394;BME280;10356;50.544;9.642;2022-11-20T05:52:47;97722.09;;;-0.14;100.00
20394;BME280;10356;50.544;9.642;2022-11-20T05:55:13;97721.22;;;-0.13;100.00
20394;BME280;10356;50.544;9.642;2022-11-20T05:57:40;97714.50;;;-0.15;100.00
20394;BME280;10356;50.544;9.642;2022-11-20T06:00:07;97714.44;;;-0.14;100.00
20394;BME280;10356;50.544;9.642;2022-11-20T06:02:34;97711.78;;;-0.12;100.00
20394;BME280;10356;50.544;9.642;2022-11-20T06:05:01;97714.22;;;-0.09;100.00
20394;BME280;10356;50.544;9.642;2022-11-20T06:07:29;97717.41;;;-0.04;100.00
20394;BME280;10356;50.544;9.642;2022-11-20T06:09:55;97718.97;;;0.00;100.00
20394;BME280;10356;50.544;9.642;2022-11-20T06:12:21;97729.31;;;-0.03;100.00
20394;BME280;10356;50.544;9.642;2022-11-20T06:14:48;97730.28;;;-0.06;100.00
20394;BME280;10356;50.544;9.642;2022-11-20T06:17:14;97727.41;;;0.02;100.00
20394;BME280;10356;50.544;9.642;2022-11-20T06:19:41;97726.41;;;0.05;100.00
20394;BME280;10356;50.544;9.642;2022-11-20T06:22:07;97724.09;;;0.00;100.00
20394;BME280;10356;50.544;9.642;2022-11-20T06:24:35;97722.28;;;0.02;100.00
20394;BME280;10356;50.544;9.642;2022-11-20T06:27:02;97717.41;;;-0.04;100.00
20394;BME280;10356;50.544;9.642;2022-11-20T06:29:28;97723.44;;;-0.05;100.00
20394;BME280;10356;50.544;9.642;2022-11-20T06:31:55;97732.78;;;-0.04;100.00
20394;BME280;10356;50.544;9.642;2022-11-20T06:34:21;97731.13;;;-0.05;100.00
20394;BME280;10356;50.544;9.642;2022-11-20T06:36:47;97727.66;;;-0.04;100.00
20394;BME280;10356;50.544;9.642;2022-11-20T06:39:14;97726.00;;;-0.05;100.00
20394;BME280;10356;50.544;9.642;2022-11-20T06:41:42;97727.53;;;-0.01;100.00
20394;BME280;10356;50.544;9.642;2022-11-20T06:44:08;97727.34;;;0.04;100.00
20394;BME280;10356;50.544;9.642;2022-11-20T06:46:35;97743.31;;;0.09;100.00
20394;BME280;10356;50.544;9.642;2022-11-20T06:49:01;97744.91;;;0.11;100.00
20394;BME280;10356;50.544;9.642;2022-11-20T06:51:28;97743.28;;;0.10;100.00
20394;BME280;10356;50.544;9.642;2022-11-20T06:53:54;97744.03;;;0.12;100.00
20394;BME280;10356;50.544;9.642;2022-11-20T06:56:21;97743.03;;;0.15;100.00
20394;BME280;10356;50.544;9.642;2022-11-20T06:58:49;97749.00;;;0.15;100.00
20394;BME280;10356;50.544;9.642;2022-11-20T07:01:15;97749.00;;;0.15;100.00
20394;BME280;10356;50.544;9.642;2022-11-20T07:03:43;97753.84;;;0.21;100.00
20394;BME280;10356;50.544;9.642;2022-11-20T07:06:10;97745.41;;;0.19;100.00
20394;BME280;10356;50.544;9.642;2022-11-20T07:08:37;97744.38;;;0.23;100.00
20394;BME280;10356;50.544;9.642;2022-11-20T07:11:05;97740.94;;;0.24;100.00
20394;BME280;10356;50.544;9.642;2022-11-20T07:13:32;97737.53;;;0.24;100.00
20394;BME280;10356;50.544;9.642;2022-11-20T07:16:01;97740.16;;;0.22;100.00
20394;BME280;10356;50.544;9.642;2022-11-20T07:18:28;97743.22;;;0.30;100.00
20394;BME280;10356;50.544;9.642;2022-11-20T07:20:54;97739.75;;;0.31;100.00
20394;BME280;10356;50.544;9.642;2022-11-20T07:23:21;97737.81;;;0.36;100.00
20394;BME280;10356;50.544;9.642;2022-11-20T07:25:48;97741.75;;;0.43;100.00
20394;BME280;10356;50.544;9.642;2022-11-20T07:28:14;97746.38;;;0.35;100.00
20394;BME280;10356;50.544;9.642;2022-11-20T07:30:40;97742.09;;;0.36;100.00
20394;BME280;10356;50.544;9.642;2022-11-20T07:33:08;97741.19;;;0.37;100.00
20394;BME280;10356;50.544;9.642;2022-11-20T07:35:35;97739.94;;;0.45;100.00
20394;BME280;10356;50.544;9.642;2022-11-20T07:38:01;97735.75;;;0.44;100.00
20394;BME280;10356;50.544;9.642;2022-11-20T07:40:28;97738.63;;;0.37;100.00
20394;BME280;10356;50.544;9.642;2022-11-20T07:42:55;97734.81;;;0.45;100.00
20394;BME280;10356;50.544;9.642;2022-11-20T07:45:23;97735.59;;;0.47;100.00
20394;BME280;10356;50.544;9.642;2022-11-20T07:47:49;97729.69;;;0.45;100.00
20394;BME280;10356;50.544;9.642;2022-11-20T07:50:18;97730.47;;;0.47;100.00
20394;BME280;10356;50.544;9.642;2022-11-20T07:52:45;97737.25;;;0.48;100.00
20394;BME280;10356;50.544;9.642;2022-11-20T07:55:11;97727.91;;;0.47;100.00
20394;BME280;10356;50.544;9.642;2022-11-20T07:57:38;97721.44;;;0.57;100.00
20394;BME280;10356;50.544;9.642;2022-11-20T08:00:07;97714.69;;;0.56;100.00
20394;BME280;10356;50.544;9.642;2022-11-20T08:02:34;97708.28;;;0.65;100.00
20394;BME280;10356;50.544;9.642;2022-11-20T08:05:02;97724.41;;;0.67;100.00
20394;BME280;10356;50.544;9.642;2022-11-20T08:07:35;97719.84;;;0.73;100.00
20394;BME280;10356;50.544;9.642;2022-11-20T08:10:02;97722.94;;;0.80;100.00
20394;BME280;10356;50.544;9.642;2022-11-20T08:12:28;97725.13;;;0.88;100.00
20394;BME280;10356;50.544;9.642;2022-11-20T08:15:12;97717.91;;;0.96;100.00
20394;BME280;10356;50.544;9.642;2022-11-20T08:17:39;97726.38;;;0.98;100.00
20394;BME280;10356;50.544;9.642;2022-11-20T08:20:06;97735.88;;;0.96;100.00
20394;BME280;10356;50.544;9.642;2022-11-20T08:22:34;97733.97;;;0.99;100.00
20394;BME280;10356;50.544;9.642;2022-11-20T08:25:00;97738.31;;;0.99;100.00
20394;BME280;10356;50.544;9.642;2022-11-20T08:27:27;97746.47;;;1.07;100.00
20394;BME280;10356;50.544;9.642;2022-11-20T08:29:53;97755.44;;;1.15;100.00
20394;BME280;10356;50.544;9.642;2022-11-20T08:32:20;97749.31;;;1.18;100.00
20394;BME280;10356;50.544;9.642;2022-11-20T08:34:46;97751.47;;;1.27;100.00
20394;BME280;10356;50.544;9.642;2022-11-20T08:37:13;97757.69;;;1.21;100.00
20394;BME280;10356;50.544;9.642;2022-11-20T08:39:41;97757.19;;;1.15;100.00
20394;BME280;10356;50.544;9.642;2022-11-20T08:42:07;97757.69;;;1.21;100.00
20394;BME280;10356;50.544;9.642;2022-11-20T08:44:34;97756.50;;;1.28;100.00
20394;BME280;10356;50.544;9.642;2022-11-20T08:47:00;97752.91;;;1.32;100.00
20394;BME280;10356;50.544;9.642;2022-11-20T08:49:27;97755.25;;;1.37;100.00
20394;BME280;10356;50.544;9.642;2022-11-20T08:51:53;97759.53;;;1.36;100.00
20394;BME280;10356;50.544;9.642;2022-11-20T08:54:20;97752.38;;;1.43;100.00
20394;BME280;10356;50.544;9.642;2022-11-20T08:56:49;97760.22;;;1.40;100.00
20394;BME280;10356;50.544;9.642;2022-11-20T08:59:15;97760.91;;;1.43;100.00
20394;BME280;10356;50.544;9.642;2022-11-20T09:01:42;97750.47;;;1.46;100.00
20394;BME280;10356;50.544;9.642;2022-11-20T09:04:08;97757.66;;;1.57;100.00
20394;BME280;10356;50.544;9.642;2022-11-20T09:06:35;97755.53;;;1.65;100.00
20394;BME280;10356;50.544;9.642;2022-11-20T09:09:01;97756.06;;;1.72;100.00
20394;BME280;10356;50.544;9.642;2022-11-20T09:11:28;97749.78;;;1.77;100.00
20394;BME280;10356;50.544;9.642;2022-11-20T09:13:55;97754.31;;;1.89;100.00
20394;BME280;10356;50.544;9.642;2022-11-20T09:16:22;97754.00;;;1.95;100.00
20394;BME280;10356;50.544;9.642;2022-11-20T09:18:49;97750.44;;;1.98;100.00
20394;BME280;10356;50.544;9.642;2022-11-20T09:21:16;97757.75;;;2.05;100.00
20394;BME280;10356;50.544;9.642;2022-11-20T09:23:42;97755.19;;;2.05;100.00
20394;BME280;10356;50.544;9.642;2022-11-20T09:26:12;97768.47;;;2.13;100.00
20394;BME280;10356;50.544;9.642;2022-11-20T09:28:38;97765.72;;;2.16;100.00
20394;BME280;10356;50.544;9.642;2022-11-20T09:31:07;97772.22;;;2.23;100.00
20394;BME280;10356;50.544;9.642;2022-11-20T09:33:34;97763.69;;;2.23;100.00
20394;BME280;10356;50.544;9.642;2022-11-20T09:36:01;97772.81;;;2.28;100.00
20394;BME280;10356;50.544;9.642;2022-11-20T09:38:28;97777.78;;;2.31;100.00
20394;BME280;10356;50.544;9.642;2022-11-20T09:40:57;97771.50;;;2.37;100.00
20394;BME280;10356;50.544;9.642;2022-11-20T09:43:31;97770.00;;;2.48;100.00
20394;BME280;10356;50.544;9.642;2022-11-20T09:46:07;97763.41;;;2.60;100.00
20394;BME280;10356;50.544;9.642;2022-11-20T09:48:59;97764.66;;;2.69;100.00
20394;BME280;10356;50.544;9.642;2022-11-20T09:51:37;97762.84;;;2.71;100.00
20394;BME280;10356;50.544;9.642;2022-11-20T09:54:14;97762.09;;;2.69;100.00
20394;BME280;10356;50.544;9.642;2022-11-20T09:56:42;97762.66;;;2.74;100.00
20394;BME280;10356;50.544;9.642;2022-11-20T09:59:20;97760.84;;;2.76;100.00
20394;BME280;10356;50.544;9.642;2022-11-20T10:01:51;97763.91;;;2.82;99.76
20394;BME280;10356;50.544;9.642;2022-11-20T10:04:19;97765.16;;;2.75;99.28
20394;BME280;10356;50.544;9.642;2022-11-20T10:06:51;97759.44;;;2.86;98.85
20394;BME280;10356;50.544;9.642;2022-11-20T10:09:25;97758.94;;;2.95;98.37
20394;BME280;10356;50.544;9.642;2022-11-20T10:12:10;97754.75;;;3.08;99.03
20394;BME280;10356;50.544;9.642;2022-11-20T10:14:46;97741.13;;;3.21;97.94
20394;BME280;10356;50.544;9.642;2022-11-20T10:17:23;97741.31;;;3.18;97.05
20394;BME280;10356;50.544;9.642;2022-11-20T10:20:02;97741.78;;;3.25;97.32
20394;BME280;10356;50.544;9.642;2022-11-20T10:22:49;97739.06;;;3.42;96.56
20394;BME280;10356;50.544;9.642;2022-11-20T10:25:21;97738.09;;;3.45;96.36
20394;BME280;10356;50.544;9.642;2022-11-20T10:27:59;97731.09;;;3.47;96.11
20394;BME280;10356;50.544;9.642;2022-11-20T10:30:34;97735.91;;;3.53;96.16
20394;BME280;10356;50.544;9.642;2022-11-20T10:33:11;97727.69;;;3.46;95.30
20394;BME280;10356;50.544;9.642;2022-11-20T10:35:42;97732.22;;;3.57;95.68
20394;BME280;10356;50.544;9.642;2022-11-20T10:38:14;97733.25;;;3.68;95.92
20394;BME280;10356;50.544;9.642;2022-11-20T10:40:44;97728.13;;;3.82;95.77
20394;BME280;10356;50.544;9.642;2022-11-20T10:43:14;97734.59;;;4.03;93.67
20394;BME280;10356;50.544;9.642;2022-11-20T10:45:48;97733.13;;;4.13;92.18
20394;BME280;10356;50.544;9.642;2022-11-20T10:48:20;97734.41;;;4.20;89.94
20394;BME280;10356;50.544;9.642;2022-11-20T10:51:10;97721.88;;;4.28;90.62
20394;BME280;10356;50.544;9.642;2022-11-20T10:53:48;97722.44;;;4.48;89.11
20394;BME280;10356;50.544;9.642;2022-11-20T10:56:21;97722.06;;;4.54;90.09
20394;BME280;10356;50.544;9.642;2022-11-20T10:59:10;97725.38;;;4.42;87.85
20394;BME280;10356;50.544;9.642;2022-11-20T11:01:40;97718.19;;;4.33;89.01
20394;BME280;10356;50.544;9.642;2022-11-20T11:04:23;97716.28;;;4.22;89.04
20394;BME280;10356;50.544;9.642;2022-11-20T11:06:59;97723.00;;;4.10;89.65
20394;BME280;10356;50.544;9.642;2022-11-20T11:09:34;97720.41;;;3.96;89.97
20394;BME280;10356;50.544;9.642;2022-11-20T11:12:06;97723.53;;;3.87;91.24
20394;BME280;10356;50.544;9.642;2022-11-20T11:14:42;97728.47;;;3.76;93.15
20394;BME280;10356;50.544;9.642;2022-11-20T11:17:20;97731.03;;;3.62;95.01
20394;BME280;10356;50.544;9.642;2022-11-20T11:20:01;97726.13;;;3.58;95.93
20394;BME280;10356;50.544;9.642;2022-11-20T11:22:29;97724.22;;;3.31;96.38
20394;BME280;10356;50.544;9.642;2022-11-20T11:24:57;97714.38;;;3.24;96.37
20394;BME280;10356;50.544;9.642;2022-11-20T11:27:23;97710.84;;;3.11;96.18
20394;BME280;10356;50.544;9.642;2022-11-20T11:30:01;97718.13;;;3.18;96.42
20394;BME280;10356;50.544;9.642;2022-11-20T11:32:29;97717.66;;;3.41;94.80
20394;BME280;10356;50.544;9.642;2022-11-20T11:35:00;97713.38;;;3.56;91.75
20394;BME280;10356;50.544;9.642;2022-11-20T11:37:32;97714.75;;;3.62;91.00
20394;BME280;10356;50.544;9.642;2022-11-20T11:39:59;97709.78;;;3.59;89.98
20394;BME280;10356;50.544;9.642;2022-11-20T11:42:27;97712.81;;;3.51;90.16
20394;BME280;10356;50.544;9.642;2022-11-20T11:44:56;97701.41;;;3.55;90.17
20394;BME280;10356;50.544;9.642;2022-11-20T11:47:33;97700.84;;;3.50;89.01
20394;BME280;10356;50.544;9.642;2022-11-20T11:50:14;97708.03;;;3.45;89.59
20394;BME280;10356;50.544;9.642;2022-11-20T11:52:44;97713.16;;;3.45;90.07
20394;BME280;10356;50.544;9.642;2022-11-20T11:55:15;97707.50;;;3.24;90.71
20394;BME280;10356;50.544;9.642;2022-11-20T11:57:47;97699.94;;;3.21;90.42
20394;BME280;10356;50.544;9.642;2022-11-20T12:00:18;97694.91;;;3.34;90.47
20394;BME280;10356;50.544;9.642;2022-11-20T12:02:56;97689.44;;;3.54;90.11
20394;BME280;10356;50.544;9.642;2022-11-20T12:05:28;97696.16;;;3.57;87.24
20394;BME280;10356;50.544;9.642;2022-11-20T12:07:59;97691.75;;;3.59;87.87
20394;BME280;10356;50.544;9.642;2022-11-20T12:10:39;97692.78;;;3.70;87.39
20394;BME280;10356;50.544;9.642;2022-11-20T12:13:18;97690.56;;;3.64;86.99
20394;BME280;10356;50.544;9.642;2022-11-20T12:15:47;97682.69;;;3.67;87.15
20394;BME280;10356;50.544;9.642;2022-11-20T12:18:15;97681.56;;;3.71;87.26
20394;BME280;10356;50.544;9.642;2022-11-20T12:20:48;97683.94;;;3.74;88.40
20394;BME280;10356;50.544;9.642;2022-11-20T12:23:21;97685.69;;;3.60;86.83
20394;BME280;10356;50.544;9.642;2022-11-20T12:25:54;97677.69;;;3.64;87.33
20394;BME280;10356;50.544;9.642;2022-11-20T12:28:31;97681.56;;;3.57;88.70
20394;BME280;10356;50.544;9.642;2022-11-20T12:31:14;97679.81;;;3.72;89.15
20394;BME280;10356;50.544;9.642;2022-11-20T12:33:57;97684.97;;;3.72;89.13
20394;BME280;10356;50.544;9.642;2022-11-20T12:36:35;97680.84;;;3.69;88.98
20394;BME280;10356;50.544;9.642;2022-11-20T12:39:16;97682.56;;;3.69;88.89
20394;BME280;10356;50.544;9.642;2022-11-20T12:42:05;97683.31;;;3.71;88.89
20394;BME280;10356;50.544;9.642;2022-11-20T12:45:21;97679.63;;;3.75;87.80
20394;BME280;10356;50.544;9.642;2022-11-20T12:48:08;97682.56;;;3.69;88.61
20394;BME280;10356;50.544;9.642;2022-11-20T12:50:47;97679.44;;;3.64;87.13
20394;BME280;10356;50.544;9.642;2022-11-20T12:53:25;97678.75;;;3.46;87.05
20394;BME280;10356;50.544;9.642;2022-11-20T12:55:59;97682.78;;;3.36;87.55
20394;BME280;10356;50.544;9.642;2022-11-20T12:58:36;97677.63;;;3.36;88.13
20394;BME280;10356;50.544;9.642;2022-11-20T13:01:12;97681.66;;;3.26;88.46
20394;BME280;10356;50.544;9.642;2022-11-20T13:04:11;97685.31;;;3.22;88.49
20394;BME280;10356;50.544;9.642;2022-11-20T13:06:39;97682.66;;;3.23;88.56
20394;BME280;10356;50.544;9.642;2022-11-20T13:09:11;97672.47;;;3.22;88.44
20394;BME280;10356;50.544;9.642;2022-11-20T13:11:43;97676.56;;;3.10;88.96